Time;durP1;ratioP1;P1;durP2;ratioP2;P2;SDS_P1;SDS_P2;PMS_P1;PMS_P2;Temp;Humidity;BMP_temperature;BMP_pressure;BME280_temperature;BME280_humidity;BME280_pressure;Samples;Min_cycle;Max_cycle;Signal;HPM_P1;HPM_P2
2023/01/12 00:01:33;;;;;;;8.05;2.70;;;11.20;44.10;;;;;;5013947;28;20178;-50
2023/01/12 00:03:59;;;;;;;6.00;3.10;;;11.20;43.80;;;;;;5013592;28;20190;-50
2023/01/12 00:06:25;;;;;;;6.97;3.92;;;11.20;43.70;;;;;;5013415;28;20265;-50
2023/01/12 00:08:52;;;;;;;8.48;4.13;;;11.20;44.00;;;;;;5013840;28;20534;-50
2023/01/12 00:11:18;;;;;;;8.73;3.35;;;11.10;44.10;;;;;;5013881;28;20187;-51
2023/01/12 00:13:44;;;;;;;3.85;2.60;;;11.00;44.00;;;;;;5013665;28;20189;-50
2023/01/12 00:16:33;;;;;;;5.70;2.83;;;11.00;44.10;;;;;;5013348;28;20257;-50
2023/01/12 00:19:11;;;;;;;5.45;1.77;;;11.00;44.00;;;;;;5012806;28;20637;-50
2023/01/12 00:21:56;;;;;;;6.00;2.45;;;11.00;43.70;;;;;;5013705;28;20220;-51
2023/01/12 00:24:30;;;;;;;6.75;2.47;;;10.90;43.70;;;;;;5013107;28;20194;-50
2023/01/12 00:26:57;;;;;;;4.60;2.30;;;10.80;43.60;;;;;;5013263;28;20293;-50
2023/01/12 00:29:24;;;;;;;6.80;2.70;;;10.70;43.80;;;;;;5013244;28;20162;-50
2023/01/12 00:31:52;;;;;;;5.50;1.67;;;10.70;44.00;;;;;;5013356;28;20265;-50
2023/01/12 00:34:18;;;;;;;8.90;2.78;;;10.60;43.90;;;;;;5013158;28;20190;-50
2023/01/12 00:36:45;;;;;;;7.10;2.42;;;10.60;43.90;;;;;;5012982;28;20682;-50
2023/01/12 00:39:12;;;;;;;2.30;1.63;;;10.50;44.00;;;;;;5013285;28;20189;-50
2023/01/12 00:47:09;;;;;;;5.60;2.47;;;10.40;44.30;;;;;;5013191;28;20198;-50
2023/01/12 00:49:36;;;;;;;4.07;2.08;;;10.20;44.20;;;;;;5011704;28;20241;-50
2023/01/12 00:52:02;;;;;;;5.68;2.40;;;10.20;44.20;;;;;;5012790;28;20213;-50
2023/01/12 00:54:28;;;;;;;5.25;2.10;;;10.10;44.30;;;;;;5012853;28;20174;-50
2023/01/12 00:56:54;;;;;;;7.00;2.00;;;10.00;44.20;;;;;;5012771;28;20197;-50
2023/01/12 00:59:19;;;;;;;3.43;2.20;;;9.90;44.50;;;;;;5012800;28;20177;-50
2023/01/12 01:01:45;;;;;;;4.97;2.60;;;9.90;44.70;;;;;;5013033;28;20575;-50
2023/01/12 01:04:11;;;;;;;6.10;2.30;;;9.80;44.60;;;;;;5012613;28;20740;-50
2023/01/12 01:06:38;;;;;;;5.60;2.13;;;9.80;44.70;;;;;;5012482;28;20368;-50
2023/01/12 01:09:04;;;;;;;5.80;1.80;;;9.80;44.80;;;;;;5012853;28;20174;-50
2023/01/12 01:11:30;;;;;;;2.50;1.25;;;9.80;44.90;;;;;;5012899;28;20231;-50
2023/01/12 01:13:55;;;;;;;5.03;1.77;;;9.80;44.90;;;;;;5012865;28;20648;-50
2023/01/12 01:16:21;;;;;;;6.57;1.90;;;9.80;45.00;;;;;;5012276;28;20173;-50
2023/01/12 01:18:47;;;;;;;5.37;2.33;;;9.80;45.00;;;;;;5012787;28;20260;-50
2023/01/12 01:21:13;;;;;;;6.63;1.98;;;9.90;45.10;;;;;;5012720;28;20424;-51
2023/01/12 01:23:40;;;;;;;7.07;1.55;;;9.90;44.80;;;;;;5012295;28;20214;-50
2023/01/12 01:26:12;;;;;;;7.68;3.60;;;9.80;44.50;;;;;;5012501;28;20174;-50
2023/01/12 01:28:39;;;;;;;7.18;2.53;;;9.80;44.50;;;;;;5012096;28;20225;-50
2023/01/12 01:31:07;;;;;;;4.95;1.65;;;9.80;44.40;;;;;;5012388;28;20169;-50
2023/01/12 01:33:33;;;;;;;6.45;1.80;;;9.70;44.30;;;;;;5012644;28;20181;-50
2023/01/12 01:35:59;;;;;;;5.37;1.80;;;9.60;44.40;;;;;;5012089;28;20269;-50
2023/01/12 01:38:25;;;;;;;4.73;1.70;;;9.70;44.70;;;;;;5012160;28;20317;-50
2023/01/12 01:40:51;;;;;;;4.00;1.20;;;9.70;44.70;;;;;;5012392;28;20437;-50
2023/01/12 01:43:18;;;;;;;5.23;1.20;;;9.60;44.60;;;;;;5012356;28;20914;-50
2023/01/12 01:45:48;;;;;;;4.95;1.83;;;9.60;45.00;;;;;;5012100;28;20677;-50
2023/01/12 01:48:16;;;;;;;5.28;1.70;;;9.80;45.20;;;;;;5012129;28;20214;-50
2023/01/12 01:50:47;;;;;;;4.53;1.13;;;9.90;45.30;;;;;;5012444;28;20198;-50
2023/01/12 01:53:18;;;;;;;2.92;1.23;;;10.00;44.90;;;;;;5012163;28;20233;-50
2023/01/12 01:55:48;;;;;;;4.50;1.55;;;10.20;44.30;;;;;;5012129;28;20182;-50
2023/01/12 01:58:29;;;;;;;5.65;2.45;;;10.30;44.20;;;;;;5012351;28;20206;-50
2023/01/12 02:00:56;;;;;;;2.85;1.65;;;10.40;44.00;;;;;;5012043;28;20175;-50
2023/01/12 02:03:23;;;;;;;5.07;1.90;;;10.40;43.00;;;;;;5011981;28;20207;-50
2023/01/12 02:05:50;;;;;;;3.53;1.92;;;10.50;43.60;;;;;;5011700;28;20175;-50
2023/01/12 02:08:43;;;;;;;2.75;1.23;;;10.60;43.20;;;;;;5011951;28;20194;-50
2023/01/12 02:16:19;;;;;;;3.85;2.60;;;10.70;42.90;;;;;;5011996;28;20163;-50
2023/01/12 02:17:04;;;;;;;3.88;1.20;;;10.60;42.70;;;;;;5011635;28;20158;-50
2023/01/12 02:20:19;;;;;;;3.58;1.60;;;10.60;42.60;;;;;;5007793;28;20248;-50
2023/01/12 02:23:07;;;;;;;3.67;1.65;;;10.70;42.60;;;;;;4998125;28;20187;-50
2023/01/12 02:26:10;;;;;;;2.35;1.33;;;10.70;42.40;;;;;;5011948;28;20174;-50
2023/01/12 02:28:57;;;;;;;3.17;1.50;;;10.80;42.40;;;;;;5011717;28;20569;-50
2023/01/12 02:31:36;;;;;;;4.00;1.85;;;10.80;42.00;;;;;;5011910;28;20170;-50
2023/01/12 02:34:15;;;;;;;4.55;1.70;;;10.90;42.20;;;;;;5011722;28;20301;-50
2023/01/12 02:36:52;;;;;;;4.25;1.33;;;11.00;41.90;;;;;;5011808;28;20202;-50
2023/01/12 02:39:58;;;;;;;7.47;1.90;;;11.10;42.00;;;;;;5011745;28;20573;-50
2023/01/12 02:42:40;;;;;;;4.40;1.85;;;11.00;41.30;;;;;;5012210;28;20582;-50
2023/01/12 02:45:38;;;;;;;5.00;1.45;;;11.00;41.60;;;;;;5015259;28;20542;-50
2023/01/12 02:48:04;;;;;;;3.58;2.17;;;11.00;41.40;;;;;;5015402;28;20222;-50
2023/01/12 02:50:40;;;;;;;5.30;1.50;;;11.00;41.50;;;;;;5015107;28;20582;-50
2023/01/12 02:53:14;;;;;;;8.95;1.48;;;11.00;41.50;;;;;;5015136;28;20171;-50
2023/01/12 02:55:41;;;;;;;6.15;1.85;;;11.10;41.70;;;;;;5015078;28;20202;-50
2023/01/12 02:58:11;;;;;;;9.15;2.92;;;11.00;41.20;;;;;;5015071;28;20223;-50
2023/01/12 03:00:39;;;;;;;3.65;1.35;;;11.00;41.40;;;;;;5014926;28;20196;-50
2023/01/12 03:03:06;;;;;;;8.35;1.75;;;11.00;41.20;;;;;;5014886;28;20297;-50
2023/01/12 03:05:32;;;;;;;3.80;1.60;;;10.90;40.80;;;;;;5014748;28;20228;-50
2023/01/12 03:08:04;;;;;;;4.43;1.30;;;10.90;41.00;;;;;;5014919;28;20606;-50
2023/01/12 03:10:56;;;;;;;3.67;1.77;;;10.90;41.20;;;;;;5015049;28;20413;-50
2023/01/12 03:13:24;;;;;;;6.45;2.58;;;10.90;41.50;;;;;;5014969;28;20538;-50
2023/01/12 03:15:53;;;;;;;4.28;1.27;;;10.90;41.50;;;;;;5014647;28;20171;-50
2023/01/12 03:18:31;;;;;;;6.35;2.15;;;10.90;41.40;;;;;;5014824;28;20198;-50
2023/01/12 03:21:06;;;;;;;4.50;1.60;;;10.90;41.20;;;;;;5014531;28;20162;-50
2023/01/12 03:23:50;;;;;;;7.47;1.85;;;10.90;41.10;;;;;;5014681;28;20758;-50
2023/01/12 03:26:22;;;;;;;7.10;1.67;;;10.80;40.70;;;;;;5014511;28;20155;-50
2023/01/12 03:28:52;;;;;;;4.88;2.15;;;10.80;41.20;;;;;;5014810;28;20183;-50
2023/01/12 03:31:19;;;;;;;5.72;1.77;;;10.80;40.70;;;;;;5014388;28;20245;-50
2023/01/12 03:33:45;;;;;;;4.45;1.65;;;10.70;41.30;;;;;;5014506;28;20261;-50
2023/01/12 03:36:18;;;;;;;3.60;1.38;;;10.70;41.60;;;;;;5014066;28;20224;-50
2023/01/12 03:39:02;;;;;;;5.05;2.00;;;10.80;41.40;;;;;;5014488;28;20202;-50
2023/01/12 03:42:08;;;;;;;3.80;2.03;;;10.80;41.00;;;;;;5014157;28;20179;-50
2023/01/12 03:45:11;;;;;;;3.35;1.35;;;10.90;41.10;;;;;;5013486;28;20570;-50
2023/01/12 03:47:39;;;;;;;6.68;1.80;;;10.90;41.00;;;;;;5014179;28;20209;-50
2023/01/12 03:50:15;;;;;;;5.13;2.33;;;10.90;40.90;;;;;;5014034;28;20175;-50
2023/01/12 03:52:42;;;;;;;7.40;1.80;;;10.90;40.80;;;;;;5013043;28;20278;-50
2023/01/12 03:55:11;;;;;;;6.22;1.52;;;10.90;41.00;;;;;;5013674;28;20174;-50
2023/01/12 03:57:38;;;;;;;3.10;1.60;;;11.00;41.10;;;;;;5013728;28;20197;-50
2023/01/12 04:00:10;;;;;;;3.65;1.35;;;11.10;40.70;;;;;;5014281;28;20257;-50
2023/01/12 04:02:36;;;;;;;3.38;1.15;;;11.00;40.40;;;;;;5014180;28;20566;-50
2023/01/12 04:05:01;;;;;;;3.67;1.23;;;11.00;39.90;;;;;;5013483;28;20194;-51
2023/01/12 04:07:27;;;;;;;4.53;1.50;;;11.00;40.10;;;;;;5013956;28;20225;-50
2023/01/12 04:09:53;;;;;;;6.37;1.70;;;11.10;40.80;;;;;;5013596;28;20286;-50
2023/01/12 04:12:18;;;;;;;5.90;1.60;;;11.20;40.00;;;;;;5013627;28;20174;-50
2023/01/12 04:14:45;;;;;;;6.67;1.67;;;11.30;40.10;;;;;;5013524;28;20183;-50
2023/01/12 04:17:13;;;;;;;2.25;1.40;;;11.30;40.20;;;;;;5013648;28;20218;-50
2023/01/12 04:19:39;;;;;;;5.05;2.22;;;11.30;39.50;;;;;;5013424;28;20673;-50
2023/01/12 04:24:50;;;;;;;3.05;1.38;;;11.20;39.50;;;;;;5013126;28;20499;-50
2023/01/12 04:27:16;;;;;;;4.80;2.30;;;11.30;40.00;;;;;;5013346;28;20218;-50
2023/01/12 04:29:42;;;;;;;8.05;1.85;;;11.30;39.40;;;;;;5013275;28;20178;-50
2023/01/12 04:32:08;;;;;;;4.30;1.35;;;11.40;39.50;;;;;;5013220;28;20543;-50
2023/01/12 04:34:34;;;;;;;5.70;1.50;;;11.40;39.10;;;;;;5013284;28;20170;-50
2023/01/12 04:37:00;;;;;;;5.80;2.07;;;11.30;39.30;;;;;;5013062;28;20689;-50
2023/01/12 04:39:26;;;;;;;5.28;1.20;;;11.40;39.40;;;;;;5013350;28;20620;-50
2023/01/12 04:41:52;;;;;;;3.80;1.55;;;11.40;39.70;;;;;;5013131;28;20708;-50
2023/01/12 04:44:18;;;;;;;16.93;3.33;;;11.40;39.20;;;;;;5012768;28;20218;-50
2023/01/12 04:46:44;;;;;;;4.33;1.20;;;11.40;39.70;;;;;;5012930;28;20198;-50
2023/01/12 04:49:09;;;;;;;2.47;1.40;;;11.40;39.60;;;;;;5013020;28;20547;-50
2023/01/12 04:51:35;;;;;;;8.80;2.53;;;11.50;39.80;;;;;;5012863;28;20662;-50
2023/01/12 04:54:01;;;;;;;5.80;2.13;;;11.60;39.50;;;;;;5012802;28;20182;-50
2023/01/12 04:56:26;;;;;;;5.80;1.70;;;11.60;39.40;;;;;;5012504;28;20414;-50
2023/01/12 04:58:58;;;;;;;4.57;1.53;;;11.60;39.00;;;;;;5013113;28;20186;-50
2023/01/12 05:01:26;;;;;;;3.10;1.50;;;11.70;39.40;;;;;;5012848;28;20332;-50
2023/01/12 05:04:01;;;;;;;7.45;2.35;;;11.70;39.10;;;;;;5012263;28;20683;-50
2023/01/12 05:06:27;;;;;;;5.00;1.52;;;11.80;39.30;;;;;;5012420;28;20484;-50
2023/01/12 05:11:37;;;;;;;4.20;1.88;;;11.80;39.10;;;;;;5012907;28;20236;-50
2023/01/12 05:14:04;;;;;;;1.83;1.38;;;11.80;38.90;;;;;;5012765;28;20187;-50
2023/01/12 05:16:30;;;;;;;8.43;1.50;;;11.80;39.10;;;;;;5012256;28;20171;-50
2023/01/12 05:18:55;;;;;;;7.97;1.67;;;11.90;39.40;;;;;;5012446;28;20185;-50
2023/01/12 05:21:22;;;;;;;7.27;2.10;;;11.80;39.20;;;;;;5012734;28;20505;-50
2023/01/12 05:23:52;;;;;;;2.42;1.60;;;11.70;38.90;;;;;;5012338;28;20205;-50
2023/01/12 05:26:18;;;;;;;4.40;2.15;;;11.70;39.00;;;;;;5012274;28;20306;-50
2023/01/12 05:28:48;;;;;;;5.63;1.70;;;11.60;39.90;;;;;;5012264;28;20738;-50
2023/01/12 05:31:13;;;;;;;2.45;1.33;;;11.70;39.90;;;;;;5012171;28;20189;-50
2023/01/12 05:33:41;;;;;;;4.47;1.47;;;11.60;39.50;;;;;;5012602;28;20249;-51
2023/01/12 05:36:09;;;;;;;10.13;2.35;;;11.60;39.60;;;;;;5012053;28;20418;-50
2023/01/12 05:38:35;;;;;;;1.90;1.20;;;11.80;39.80;;;;;;5012277;28;20203;-50
2023/01/12 05:41:02;;;;;;;4.60;1.73;;;11.80;39.60;;;;;;5012243;28;20190;-51
2023/01/12 05:46:14;;;;;;;4.40;1.73;;;11.80;39.30;;;;;;5012310;28;20174;-50
2023/01/12 05:48:40;;;;;;;7.95;2.60;;;11.80;39.40;;;;;;5012064;28;20196;-51
2023/01/12 05:51:07;;;;;;;5.25;1.60;;;11.90;39.70;;;;;;5012327;28;20257;-51
2023/01/12 05:53:33;;;;;;;4.47;1.73;;;12.00;39.30;;;;;;5012248;28;20202;-50
2023/01/12 05:56:14;;;;;;;7.00;1.80;;;12.00;38.90;;;;;;5011841;28;20651;-50
2023/01/12 05:58:40;;;;;;;5.07;1.75;;;12.00;39.30;;;;;;5012044;28;20551;-51
2023/01/12 06:01:08;;;;;;;3.80;2.03;;;12.00;39.00;;;;;;5012074;28;20179;-50
2023/01/12 06:03:34;;;;;;;3.92;2.25;;;12.00;39.20;;;;;;5012210;28;20253;-50
2023/01/12 06:06:00;;;;;;;5.63;2.30;;;11.90;39.20;;;;;;5011889;28;20175;-51
2023/01/12 06:08:25;;;;;;;5.20;1.70;;;12.00;39.10;;;;;;5011941;28;20187;-50
2023/01/12 06:10:51;;;;;;;8.90;2.47;;;12.00;39.30;;;;;;5012094;28;20594;-50
2023/01/12 06:16:07;;;;;;;6.43;1.80;;;11.90;39.10;;;;;;5012980;28;20177;-50
2023/01/12 06:18:38;;;;;;;6.45;2.00;;;11.90;39.40;;;;;;5015667;28;20668;-50
2023/01/12 06:21:05;;;;;;;5.75;2.17;;;11.90;39.30;;;;;;5015656;28;20174;-50
2023/01/12 06:23:31;;;;;;;6.30;2.15;;;11.90;39.30;;;;;;5015463;28;20194;-50
2023/01/12 06:26:01;;;;;;;6.17;2.37;;;11.90;39.50;;;;;;5015697;28;20198;-50
2023/01/12 06:28:28;;;;;;;5.00;2.15;;;11.90;39.50;;;;;;5015369;28;20317;-51
2023/01/12 06:30:58;;;;;;;7.47;2.60;;;11.90;39.50;;;;;;5015437;28;20170;-50
2023/01/12 06:33:25;;;;;;;5.63;1.95;;;12.00;39.60;;;;;;5015360;28;20171;-51
2023/01/12 06:35:52;;;;;;;3.72;1.65;;;11.90;39.50;;;;;;5015044;28;20659;-50
2023/01/12 06:38:18;;;;;;;8.63;1.70;;;11.90;39.50;;;;;;5015420;28;20249;-50
2023/01/12 06:40:44;;;;;;;7.68;2.45;;;11.90;39.60;;;;;;5015221;28;20181;-50
2023/01/12 06:43:10;;;;;;;5.28;2.72;;;11.90;39.70;;;;;;5015134;28;20229;-50
2023/01/12 06:45:35;;;;;;;6.10;1.70;;;11.80;39.60;;;;;;5015048;28;20186;-51
2023/01/12 06:48:01;;;;;;;3.40;1.50;;;11.80;39.70;;;;;;5015057;28;20643;-50
2023/01/12 06:50:27;;;;;;;9.97;2.10;;;11.80;39.70;;;;;;5014963;28;20171;-50
2023/01/12 06:52:54;;;;;;;6.90;3.13;;;11.80;39.90;;;;;;5015392;28;20246;-51
2023/01/12 06:55:20;;;;;;;7.45;1.80;;;11.80;39.90;;;;;;5015091;28;20179;-50
2023/01/12 06:57:46;;;;;;;4.17;1.93;;;11.90;39.80;;;;;;5015060;28;20562;-50
2023/01/12 07:00:12;;;;;;;9.30;3.93;;;11.90;39.80;;;;;;5014972;28;20401;-51
2023/01/12 07:02:38;;;;;;;6.50;2.05;;;11.90;39.80;;;;;;5014808;28;20546;-50
2023/01/12 07:05:04;;;;;;;6.60;1.90;;;11.90;39.70;;;;;;5014511;28;20206;-50
2023/01/12 07:07:30;;;;;;;5.43;3.58;;;11.90;39.70;;;;;;5014656;28;20460;-50
2023/01/12 07:09:56;;;;;;;15.37;2.50;;;11.90;39.60;;;;;;5014612;28;20182;-50
2023/01/12 07:12:22;;;;;;;3.50;2.20;;;11.80;39.80;;;;;;5014766;28;20439;-50
2023/01/12 07:14:47;;;;;;;8.00;2.10;;;11.90;40.10;;;;;;5014512;28;20269;-50
2023/01/12 07:17:13;;;;;;;4.53;2.10;;;11.80;40.00;;;;;;5014542;28;20436;-51
2023/01/12 07:19:39;;;;;;;3.60;1.97;;;11.80;40.30;;;;;;5014516;28;20645;-50
2023/01/12 07:22:05;;;;;;;5.30;1.90;;;11.80;40.40;;;;;;5014602;28;20635;-50
2023/01/12 07:24:30;;;;;;;9.00;2.70;;;11.90;40.40;;;;;;5014426;28;20464;-50
2023/01/12 07:26:57;;;;;;;4.33;1.83;;;11.90;40.20;;;;;;5014211;28;20210;-51
2023/01/12 07:29:26;;;;;;;5.32;1.70;;;11.90;40.10;;;;;;5014338;28;20179;-51
2023/01/12 07:31:52;;;;;;;4.95;1.80;;;11.90;40.10;;;;;;5014656;28;20175;-50
2023/01/12 07:34:18;;;;;;;3.23;1.80;;;12.00;40.30;;;;;;5014187;28;20678;-51
2023/01/12 07:36:47;;;;;;;7.03;1.65;;;12.10;40.10;;;;;;5014131;28;20441;-50
2023/01/12 07:39:13;;;;;;;4.47;2.00;;;12.20;39.80;;;;;;5014179;28;20182;-51
2023/01/12 07:44:23;;;;;;;9.57;2.03;;;12.30;39.80;;;;;;5013973;28;20206;-51
2023/01/12 07:46:49;;;;;;;7.93;1.83;;;12.40;39.90;;;;;;5013930;28;20654;-50
2023/01/12 07:49:14;;;;;;;5.13;2.20;;;12.50;39.80;;;;;;5014021;28;20167;-50
2023/01/12 07:51:40;;;;;;;3.53;1.83;;;12.50;39.50;;;;;;5014040;28;20194;-50
2023/01/12 07:54:06;;;;;;;13.70;3.40;;;12.50;39.70;;;;;;5013885;28;20206;-51
2023/01/12 07:56:32;;;;;;;6.63;2.15;;;12.50;39.60;;;;;;5013560;28;20262;-50
2023/01/12 07:58:58;;;;;;;2.80;1.60;;;12.50;39.70;;;;;;5013837;28;20262;-51
2023/01/12 08:01:24;;;;;;;5.80;1.87;;;12.50;39.40;;;;;;5013791;28;20261;-51
2023/01/12 08:03:49;;;;;;;4.47;1.90;;;12.60;39.50;;;;;;5013735;28;20681;-50
2023/01/12 08:06:16;;;;;;;6.67;2.10;;;12.70;39.70;;;;;;5013689;28;20179;-51
2023/01/12 08:08:42;;;;;;;3.88;1.30;;;12.70;39.30;;;;;;5013766;28;20201;-51
2023/01/12 08:11:09;;;;;;;12.97;2.40;;;12.60;39.20;;;;;;5013619;28;20531;-51
2023/01/12 08:13:36;;;;;;;6.45;1.98;;;12.70;39.50;;;;;;5013689;28;20202;-51
2023/01/12 08:16:14;;;;;;;5.78;2.00;;;12.80;39.10;;;;;;5013195;28;20673;-51
2023/01/12 08:19:08;;;;;;;7.13;1.95;;;12.80;39.00;;;;;;5013639;28;20233;-51
2023/01/12 08:21:44;;;;;;;7.32;2.03;;;12.80;39.20;;;;;;5013075;28;20213;-51
2023/01/12 08:24:13;;;;;;;11.85;3.45;;;12.80;39.10;;;;;;5013532;28;20226;-51
2023/01/12 08:26:43;;;;;;;3.75;1.73;;;12.90;39.20;;;;;;5013005;28;20554;-50
2023/01/12 08:29:15;;;;;;;5.90;2.13;;;13.00;38.80;;;;;;5013671;28;20166;-51
2023/01/12 08:31:42;;;;;;;3.50;1.90;;;12.90;38.90;;;;;;5013193;28;20249;-51
2023/01/12 08:34:09;;;;;;;4.75;2.38;;;13.00;38.80;;;;;;5013135;28;20189;-51
2023/01/12 08:36:35;;;;;;;2.90;1.70;;;13.10;39.00;;;;;;5012915;28;20179;-51
2023/01/12 08:39:03;;;;;;;5.38;1.83;;;13.20;38.60;;;;;;5012568;28;20282;-51
2023/01/12 08:41:32;;;;;;;7.88;2.20;;;13.20;38.50;;;;;;5013052;28;20210;-50
2023/01/12 08:44:04;;;;;;;3.97;2.03;;;13.30;38.40;;;;;;5013068;28;20206;-51
2023/01/12 08:46:47;;;;;;;3.65;2.08;;;13.30;38.50;;;;;;5012597;28;20178;-50
2023/01/12 08:49:15;;;;;;;5.38;2.10;;;13.40;38.30;;;;;;5012949;28;20609;-51
2023/01/12 08:51:41;;;;;;;5.22;1.80;;;13.60;38.20;;;;;;5012953;28;20531;-51
2023/01/12 08:54:09;;;;;;;6.57;1.90;;;13.60;37.80;;;;;;5012962;28;20181;-51
2023/01/12 08:56:35;;;;;;;5.95;2.63;;;13.70;37.50;;;;;;5012827;28;20253;-51
2023/01/12 08:59:02;;;;;;;6.40;1.98;;;13.80;37.30;;;;;;5012914;28;20709;-51
2023/01/12 09:01:28;;;;;;;7.35;2.45;;;13.80;37.20;;;;;;5012925;28;20756;-51
2023/01/12 09:03:56;;;;;;;4.60;1.73;;;13.90;37.60;;;;;;5012528;28;20198;-51
2023/01/12 09:06:24;;;;;;;8.85;1.90;;;13.90;36.90;;;;;;5012276;28;20202;-51
2023/01/12 09:08:55;;;;;;;5.90;1.45;;;13.90;37.40;;;;;;5012881;28;20182;-51
2023/01/12 09:11:22;;;;;;;7.20;2.00;;;13.90;37.10;;;;;;5012499;28;20167;-51
2023/01/12 09:13:48;;;;;;;3.58;1.15;;;14.00;37.50;;;;;;5012898;28;20187;-51
2023/01/12 09:16:15;;;;;;;4.83;1.40;;;13.90;37.00;;;;;;5012287;28;20228;-51
2023/01/12 09:18:42;;;;;;;6.65;2.85;;;13.90;37.40;;;;;;5012606;28;20428;-51
2023/01/12 09:21:10;;;;;;;10.05;1.67;;;13.90;37.10;;;;;;5012482;28;20182;-50
2023/01/12 09:23:36;;;;;;;3.35;1.65;;;13.90;37.20;;;;;;5012514;28;20194;-51
2023/01/12 09:26:13;;;;;;;3.40;1.55;;;13.90;36.90;;;;;;5012153;28;20205;-51
2023/01/12 09:28:40;;;;;;;5.43;1.20;;;13.80;36.50;;;;;;5012185;28;20209;-51
2023/01/12 09:31:11;;;;;;;4.90;2.00;;;13.70;37.30;;;;;;5012379;28;20178;-51
2023/01/12 09:33:38;;;;;;;8.48;1.73;;;13.70;37.50;;;;;;5012641;28;20170;-51
2023/01/12 09:36:18;;;;;;;4.32;2.75;;;13.60;37.40;;;;;;5012066;28;20650;-51
2023/01/12 09:38:45;;;;;;;2.50;1.63;;;13.70;37.20;;;;;;5012192;28;20213;-51
2023/01/12 09:41:16;;;;;;;4.25;1.80;;;13.60;37.20;;;;;;5012148;28;20183;-51
2023/01/12 09:49:30;;;;;;;6.00;2.78;;;13.80;36.60;;;;;;5012451;28;20543;-51
2023/01/12 09:52:08;;;;;;;3.75;1.98;;;13.80;37.00;;;;;;5014729;28;20217;-51
2023/01/12 09:54:34;;;;;;;6.00;2.83;;;13.80;36.80;;;;;;5016228;28;20182;-51
2023/01/12 09:57:05;;;;;;;9.00;2.08;;;13.70;36.80;;;;;;5016168;28;20206;-51
2023/01/12 09:59:47;;;;;;;2.85;1.10;;;13.70;36.70;;;;;;5016111;28;20238;-51
2023/01/12 10:02:13;;;;;;;8.25;2.20;;;13.70;37.20;;;;;;5016018;28;20777;-51
2023/01/12 10:04:39;;;;;;;4.55;1.10;;;13.70;36.80;;;;;;5015714;28;20198;-51
2023/01/12 10:07:12;;;;;;;3.15;1.60;;;13.60;37.00;;;;;;5015932;28;20536;-51
2023/01/12 10:09:38;;;;;;;6.78;1.85;;;13.70;36.70;;;;;;5015945;28;20612;-51
2023/01/12 10:12:30;;;;;;;3.40;1.67;;;13.50;36.80;;;;;;5015834;28;20236;-51
2023/01/12 10:14:58;;;;;;;8.18;2.28;;;13.60;37.40;;;;;;5027559;22;20547;-54
2023/01/12 10:17:39;;;;;;;3.33;1.60;;;13.80;37.30;;;;;;5008118;28;20178;-53
2023/01/12 10:20:22;;;;;;;6.25;1.88;;;13.90;36.90;;;;;;5015785;28;20158;-54
2023/01/12 10:22:55;;;;;;;2.33;1.33;;;13.90;37.10;;;;;;5015741;28;20569;-54
2023/01/12 10:25:43;;;;;;;3.10;1.48;;;13.90;36.60;;;;;;5015550;28;20202;-54
2023/01/12 10:28:17;;;;;;;4.55;1.05;;;13.80;36.80;;;;;;5015563;28;20230;-54
2023/01/12 10:30:43;;;;;;;4.10;1.42;;;13.70;36.40;;;;;;5015580;28;20174;-54
2023/01/12 10:33:16;;;;;;;6.43;1.25;;;13.60;37.20;;;;;;5015674;28;20206;-52
2023/01/12 10:35:48;;;;;;;2.28;1.05;;;13.50;36.90;;;;;;5015234;28;20534;-52
2023/01/12 10:38:21;;;;;;;4.60;2.22;;;13.50;36.80;;;;;;5015255;28;20170;-52
2023/01/12 10:41:10;;;;;;;4.30;1.73;;;13.50;36.90;;;;;;5015350;28;20174;-52
2023/01/12 10:43:38;;;;;;;5.82;1.80;;;13.50;37.10;;;;;;5015453;28;20300;-52
2023/01/12 10:46:06;;;;;;;3.40;1.50;;;13.50;36.70;;;;;;5014990;28;20576;-52
2023/01/12 10:48:32;;;;;;;5.20;1.80;;;13.50;37.00;;;;;;5015181;28;20321;-52
2023/01/12 10:51:04;;;;;;;3.73;1.40;;;13.40;37.20;;;;;;5015064;28;20274;-52
2023/01/12 10:54:09;;;;;;;3.10;1.50;;;13.40;37.20;;;;;;5015009;28;20432;-52
2023/01/12 10:56:38;;;;;;;3.42;1.67;;;13.50;36.60;;;;;;5013125;28;20186;-52
2023/01/12 10:59:12;;;;;;;5.05;1.20;;;13.60;37.20;;;;;;5014883;28;20662;-51
2023/01/12 11:02:10;;;;;;;3.35;1.50;;;13.60;36.40;;;;;;5014606;28;20197;-52
2023/01/12 11:04:51;;;;;;;3.22;1.92;;;13.40;36.90;;;;;;5014673;28;20539;-52
2023/01/12 11:07:25;;;;;;;7.15;1.10;;;13.50;37.40;;;;;;5014927;28;20205;-52
2023/01/12 11:09:53;;;;;;;5.63;1.98;;;13.60;36.80;;;;;;5014641;28;20155;-51
2023/01/12 11:12:24;;;;;;;4.28;2.22;;;13.60;36.80;;;;;;5014779;28;20262;-52
2023/01/12 11:15:17;;;;;;;5.10;1.50;;;13.40;37.20;;;;;;5014304;28;20206;-52
2023/01/12 11:18:01;;;;;;;4.50;2.45;;;13.50;37.60;;;;;;5013148;28;20186;-52
2023/01/12 11:20:33;;;;;;;4.03;1.48;;;13.50;37.50;;;;;;5014859;28;20182;-52
2023/01/12 11:23:02;;;;;;;3.50;1.27;;;13.50;37.30;;;;;;5014644;28;20182;-52
2023/01/12 11:25:42;;;;;;;1.98;1.63;;;13.60;37.70;;;;;;5014488;28;20244;-54
2023/01/12 11:28:29;;;;;;;4.03;1.90;;;13.50;38.10;;;;;;5014492;28;20253;-53
2023/01/12 11:31:04;;;;;;;2.92;1.25;;;13.60;38.20;;;;;;5014493;28;20171;-54
2023/01/12 11:33:39;;;;;;;5.03;1.20;;;13.70;37.90;;;;;;5014388;28;20180;-54
2023/01/12 11:36:17;;;;;;;4.07;1.48;;;13.60;37.90;;;;;;5014188;28;20162;-54
2023/01/12 11:39:12;;;;;;;2.38;1.30;;;13.60;38.30;;;;;;5014164;28;20167;-55
2023/01/12 11:45:00;;;;;;;5.88;1.48;;;13.70;38.40;;;;;;5013968;28;20261;-54
2023/01/12 11:47:43;;;;;;;2.70;1.50;;;13.50;39.30;;;;;;5014122;28;20166;-54
2023/01/12 11:50:26;;;;;;;5.53;1.45;;;13.40;39.80;;;;;;5014362;28;20177;-54
2023/01/12 11:52:54;;;;;;;2.10;1.15;;;13.40;40.10;;;;;;5013960;28;20535;-54
2023/01/12 11:55:33;;;;;;;3.38;1.30;;;13.30;40.50;;;;;;5013706;28;20300;-55
2023/01/12 11:58:10;;;;;;;3.22;1.42;;;13.30;41.50;;;;;;5013905;28;20557;-54
2023/01/12 12:01:01;;;;;;;2.63;1.50;;;13.20;41.50;;;;;;5014221;28;20564;-54
2023/01/12 12:03:47;;;;;;;11.82;1.63;;;13.20;42.30;;;;;;5011567;28;20613;-54
2023/01/12 12:06:41;;;;;;;3.10;1.50;;;13.10;42.60;;;;;;5013768;28;20179;-55
2023/01/12 12:09:16;;;;;;;2.67;1.50;;;13.20;43.00;;;;;;5013748;28;20644;-54
2023/01/12 12:12:02;;;;;;;3.30;1.35;;;13.10;43.60;;;;;;5013752;28;20206;-54
2023/01/12 12:14:50;;;;;;;2.70;1.20;;;13.10;43.80;;;;;;5012506;28;20242;-55
2023/01/12 12:17:43;;;;;;;3.10;1.60;;;13.00;44.20;;;;;;5013610;28;20179;-54
2023/01/12 12:20:28;;;;;;;3.63;1.23;;;13.00;44.10;;;;;;5013759;28;20170;-54
2023/01/12 12:23:19;;;;;;;21.88;17.00;;;13.10;44.00;;;;;;5013462;28;20656;-54
2023/01/12 12:26:13;;;;;;;6.85;3.15;;;13.10;43.80;;;;;;5013188;28;20237;-54
2023/01/12 12:28:50;;;;;;;2.85;1.23;;;13.30;44.40;;;;;;5013427;28;20177;-54
2023/01/12 12:31:37;;;;;;;3.33;1.25;;;13.10;43.90;;;;;;5013340;28;20154;-54
2023/01/12 12:34:26;;;;;;;3.70;1.20;;;13.00;45.00;;;;;;5013135;28;20243;-53
2023/01/12 12:37:12;;;;;;;1.75;1.17;;;13.00;44.60;;;;;;5007665;28;20194;-54
2023/01/12 12:39:58;;;;;;;2.55;1.05;;;13.20;45.00;;;;;;5013423;28;20170;-54
2023/01/12 12:46:04;;;;;;;2.13;1.30;;;13.20;45.20;;;;;;5009162;28;20282;-55
2023/01/12 12:49:08;;;;;;;2.90;1.42;;;13.10;45.40;;;;;;5013162;28;20186;-54
2023/01/12 12:51:36;;;;;;;4.68;1.00;;;13.20;45.30;;;;;;5012542;28;20677;-54
2023/01/12 12:54:05;;;;;;;3.50;1.05;;;13.10;45.90;;;;;;5012793;28;20197;-54
2023/01/12 12:56:35;;;;;;;2.45;1.25;;;13.10;46.10;;;;;;5013051;28;20570;-54
2023/01/12 12:59:01;;;;;;;2.70;1.50;;;13.00;46.10;;;;;;5012791;28;20697;-54
2023/01/12 13:01:27;;;;;;;3.28;0.90;;;13.00;46.60;;;;;;5012838;28;20163;-54
2023/01/12 13:04:03;;;;;;;3.37;2.00;;;13.00;46.80;;;;;;5012645;28;20237;-54
2023/01/12 13:06:44;;;;;;;1.88;0.93;;;13.00;46.80;;;;;;5012439;28;20181;-54
2023/01/12 13:09:10;;;;;;;3.85;1.20;;;13.00;47.10;;;;;;5012846;28;20249;-54
2023/01/12 13:11:56;;;;;;;2.40;0.80;;;12.90;47.20;;;;;;5012688;28;20753;-54
2023/01/12 13:14:33;;;;;;;2.17;1.20;;;12.80;47.10;;;;;;5012329;28;20217;-54
2023/01/12 13:17:05;;;;;;;3.95;1.40;;;12.80;47.50;;;;;;5012842;28;20231;-54
2023/01/12 13:19:39;;;;;;;2.30;0.90;;;12.90;47.50;;;;;;5012561;28;20154;-54
2023/01/12 13:22:31;;;;;;;3.70;1.05;;;13.00;47.50;;;;;;5012451;28;20178;-54
2023/01/12 13:25:23;;;;;;;1.52;0.70;;;13.00;47.00;;;;;;5011772;28;20720;-53
2023/01/12 13:27:55;;;;;;;2.75;1.10;;;12.90;47.00;;;;;;4996622;28;20214;-54
2023/01/12 13:30:30;;;;;;;1.40;0.80;;;13.00;46.80;;;;;;5012441;28;20678;-54
2023/01/12 13:33:23;;;;;;;2.55;0.90;;;13.10;46.90;;;;;;5012412;28;20212;-54
2023/01/12 13:35:48;;;;;;;1.80;1.00;;;13.20;46.80;;;;;;5007851;28;20221;-53
2023/01/12 13:38:36;;;;;;;1.87;0.83;;;13.20;46.70;;;;;;5012456;28;20209;-53
2023/01/12 13:43:13;;;;;;;2.22;1.05;;;13.20;46.50;;;;;;5012310;28;20177;-54
2023/01/12 13:44:00;;;;;;;2.60;1.10;;;13.20;46.50;;;;;;5011892;28;20284;-54
2023/01/12 13:46:41;;;;;;;1.60;1.00;;;13.30;46.30;;;;;;5012100;28;20213;-54
2023/01/12 13:49:29;;;;;;;1.20;0.77;;;13.30;46.40;;;;;;5012313;28;20535;-54